Time;durP1;ratioP1;P1;durP2;ratioP2;P2;SDS_P1;SDS_P2;PMS_P1;PMS_P2;Temp;Humidity;BMP_temperature;BMP_pressure;BME280_temperature;BME280_humidity;BME280_pressure;Samples;Min_cycle;Max_cycle;Signal;HPM_P1;HPM_P2
2022/04/27 00:02:16;;;;;;;14.73;13.30;;;;;;;7.97;100.00;98398.06;4976995;28;20218;-71
2022/04/27 00:04:43;;;;;;;15.57;13.97;;;;;;;7.97;100.00;98395.41;4977208;28;20208;-71
2022/04/27 00:07:09;;;;;;;14.80;13.40;;;;;;;8.00;100.00;98400.34;4977176;28;20231;-70
2022/04/27 00:09:36;;;;;;;14.90;13.50;;;;;;;7.99;100.00;98405.81;4977168;28;20208;-71
2022/04/27 00:12:03;;;;;;;14.13;12.73;;;;;;;7.93;100.00;98398.66;4975414;28;20204;-70
2022/04/27 00:14:31;;;;;;;14.07;12.67;;;;;;;7.93;100.00;98393.38;4977032;28;20218;-70
2022/04/27 00:16:57;;;;;;;15.03;13.63;;;;;;;7.94;100.00;98400.28;4976288;28;20227;-70
2022/04/27 00:19:25;;;;;;;15.63;14.13;;;;;;;7.92;100.00;98397.03;4976692;28;20208;-70
2022/04/27 00:21:52;;;;;;;16.03;14.43;;;;;;;7.95;100.00;98393.97;4976976;28;20219;-71
2022/04/27 00:24:19;;;;;;;15.90;14.40;;;;;;;8.00;100.00;98396.88;4976933;28;20212;-70
2022/04/27 00:26:46;;;;;;;16.20;14.50;;;;;;;7.91;100.00;98401.50;4975812;28;20212;-70
2022/04/27 00:29:12;;;;;;;16.63;14.93;;;;;;;7.89;100.00;98392.94;4976797;28;20238;-71
2022/04/27 00:31:38;;;;;;;16.73;15.03;;;;;;;7.84;100.00;98394.53;4975322;28;20208;-71
2022/04/27 00:34:05;;;;;;;16.87;15.17;;;;;;;7.82;100.00;98396.53;4976694;28;20215;-71
2022/04/27 00:36:31;;;;;;;17.50;15.80;;;;;;;7.79;100.00;98394.28;4977136;28;20224;-70
2022/04/27 00:38:59;;;;;;;19.07;17.17;;;;;;;7.77;100.00;98398.94;4976824;28;20234;-70
2022/04/27 00:41:25;;;;;;;20.23;18.13;;;;;;;7.76;100.00;98399.97;4974594;28;20212;-70
2022/04/27 00:43:51;;;;;;;18.90;16.93;;;;;;;7.87;100.00;98400.25;4976822;28;20208;-71
2022/04/27 00:46:18;;;;;;;20.73;17.60;;;;;;;7.88;100.00;98396.59;4976482;28;20205;-71
2022/04/27 00:48:44;;;;;;;20.40;18.30;;;;;;;7.80;100.00;98393.28;4976066;28;20232;-71
2022/04/27 00:51:15;;;;;;;19.53;17.53;;;;;;;7.87;100.00;98394.16;4977160;28;20212;-70
2022/04/27 00:53:41;;;;;;;20.57;18.47;;;;;;;7.84;100.00;98391.88;4976389;28;20196;-70
2022/04/27 00:56:08;;;;;;;19.87;17.87;;;;;;;7.84;100.00;98398.00;4973598;28;20224;-70
2022/04/27 00:58:34;;;;;;;21.10;18.67;;;;;;;7.82;100.00;98393.88;4976219;28;20232;-70
2022/04/27 01:01:01;;;;;;;22.63;19.80;;;;;;;7.76;100.00;98387.56;4976247;28;20208;-71
2022/04/27 01:03:27;;;;;;;21.20;18.97;;;;;;;7.83;100.00;98401.66;4976160;28;20215;-70
2022/04/27 01:05:55;;;;;;;22.10;19.87;;;;;;;7.85;100.00;98404.09;4975817;28;20208;-71
2022/04/27 01:08:21;;;;;;;22.90;20.57;;;;;;;7.86;100.00;98413.69;4976238;28;20234;-71
2022/04/27 01:10:49;;;;;;;22.60;20.17;;;;;;;7.87;100.00;98415.34;4974852;28;20210;-71
2022/04/27 01:13:17;;;;;;;21.70;19.47;;;;;;;8.01;100.00;98417.06;4975699;28;20302;-71
2022/04/27 01:15:43;;;;;;;22.40;20.03;;;;;;;8.00;100.00;98415.41;4975905;28;20223;-71
2022/04/27 01:18:10;;;;;;;22.00;19.80;;;;;;;7.96;100.00;98420.28;4976082;28;20235;-71
2022/04/27 01:20:38;;;;;;;21.83;19.53;;;;;;;7.97;100.00;98421.09;4975803;28;20207;-70
2022/04/27 01:23:05;;;;;;;22.47;20.17;;;;;;;8.02;100.00;98419.50;4974221;28;20208;-71
2022/04/27 01:26:08;;;;;;;23.20;20.80;;;;;;;7.96;100.00;98419.47;4975476;28;20215;-71
2022/04/27 01:28:36;;;;;;;22.47;20.10;;;;;;;7.96;100.00;98427.41;4934587;29;20229;-70
2022/04/27 01:31:08;;;;;;;24.03;21.47;;;;;;;7.95;100.00;98426.59;4968124;28;20204;-70
2022/04/27 01:33:35;;;;;;;27.70;22.27;;;;;;;8.15;100.00;98434.66;4975704;28;20223;-70
2022/04/27 01:36:03;;;;;;;24.50;21.67;;;;;;;8.13;100.00;98426.91;4975502;28;20239;-70
2022/04/27 01:38:36;;;;;;;23.43;21.03;;;;;;;8.08;100.00;98423.19;4975247;28;20238;-71
2022/04/27 01:41:03;;;;;;;24.83;22.13;;;;;;;8.07;100.00;98425.03;4974514;28;20208;-71
2022/04/27 01:43:29;;;;;;;27.67;24.00;;;;;;;8.04;100.00;98419.28;4975205;28;20789;-71
2022/04/27 01:45:57;;;;;;;26.13;23.30;;;;;;;8.04;100.00;98424.59;4975436;28;20208;-71
2022/04/27 01:48:24;;;;;;;27.97;23.63;;;;;;;8.08;100.00;98423.19;4975189;28;20239;-71
2022/04/27 01:50:50;;;;;;;25.43;22.73;;;;;;;8.05;100.00;98427.06;4975056;28;20215;-71
2022/04/27 01:56:01;;;;;;;27.00;23.53;;;;;;;8.18;100.00;98431.59;4975201;28;20578;-71
2022/04/27 01:58:27;;;;;;;29.63;24.50;;;;;;;8.17;100.00;98427.31;4972385;28;20238;-71
2022/04/27 02:00:54;;;;;;;31.20;26.03;;;;;;;8.09;100.00;98423.00;4975461;28;20215;-71
2022/04/27 02:03:21;;;;;;;29.00;25.03;;;;;;;8.17;100.00;98428.16;4975252;28;20216;-70
2022/04/27 02:05:48;;;;;;;28.53;24.20;;;;;;;8.15;100.00;98424.88;4974798;28;20207;-71
2022/04/27 02:08:15;;;;;;;27.03;23.73;;;;;;;8.17;100.00;98422.03;4975237;28;20230;-70
2022/04/27 02:10:42;;;;;;;27.53;24.53;;;;;;;8.25;100.00;98435.97;4975061;28;20234;-70
2022/04/27 02:13:10;;;;;;;27.17;24.27;;;;;;;8.17;100.00;98429.97;4974259;28;20208;-70
2022/04/27 02:15:37;;;;;;;29.17;25.23;;;;;;;8.20;100.00;98427.78;4973539;28;20227;-70
2022/04/27 02:18:03;;;;;;;28.13;25.13;;;;;;;8.13;100.00;98439.31;4974853;28;20239;-71
2022/04/27 02:20:31;;;;;;;26.57;23.03;;;;;;;8.17;100.00;98437.91;4974634;28;20212;-70
2022/04/27 02:22:57;;;;;;;26.10;23.27;;;;;;;8.20;100.00;98434.88;4973317;28;20306;-70
2022/04/27 02:25:24;;;;;;;26.90;24.00;;;;;;;8.23;100.00;98439.84;4974906;28;20214;-70
2022/04/27 02:27:50;;;;;;;26.93;23.60;;;;;;;8.31;100.00;98440.50;4974183;28;20228;-71
2022/04/27 02:30:18;;;;;;;26.03;23.23;;;;;;;8.20;100.00;98442.84;4974136;28;20223;-70
2022/04/27 02:32:46;;;;;;;26.00;23.30;;;;;;;8.11;100.00;98446.66;4974778;28;20208;-70
2022/04/27 02:35:13;;;;;;;26.60;23.23;;;;;;;8.20;100.00;98448.13;4974745;28;20231;-70
2022/04/27 02:37:40;;;;;;;24.17;21.63;;;;;;;8.16;100.00;98441.59;4974409;28;20734;-71
2022/04/27 02:40:09;;;;;;;26.97;23.23;;;;;;;8.17;100.00;98446.69;4974455;28;20218;-70
2022/04/27 02:42:35;;;;;;;25.37;22.70;;;;;;;8.14;100.00;98451.56;4973480;28;20204;-70
2022/04/27 02:45:02;;;;;;;24.97;22.47;;;;;;;8.25;100.00;98441.28;4974944;28;20204;-70
2022/04/27 02:47:28;;;;;;;26.20;22.97;;;;;;;8.23;100.00;98442.50;4974671;28;20246;-71
2022/04/27 02:52:38;;;;;;;22.97;20.43;;;;;;;8.29;100.00;98445.16;4978664;28;20175;-70
2022/04/27 02:55:05;;;;;;;24.33;21.73;;;;;;;8.26;100.00;98450.03;4978383;28;20219;-71
2022/04/27 02:57:31;;;;;;;22.87;19.87;;;;;;;8.27;100.00;98446.34;4976815;28;20230;-70
2022/04/27 02:59:57;;;;;;;21.00;18.80;;;;;;;8.27;100.00;98449.84;4979149;28;20216;-70
2022/04/27 03:02:24;;;;;;;24.63;20.67;;;;;;;8.23;100.00;98448.59;4978078;28;20694;-70
2022/04/27 03:04:50;;;;;;;20.87;18.67;;;;;;;8.17;100.00;98448.50;4978313;28;20218;-70
2022/04/27 03:07:16;;;;;;;20.00;17.90;;;;;;;8.25;100.00;98451.03;4978260;28;20304;-70
2022/04/27 03:09:43;;;;;;;20.63;18.37;;;;;;;8.20;100.00;98448.13;4978276;28;20204;-70
2022/04/27 03:12:09;;;;;;;21.47;19.27;;;;;;;8.18;100.00;98458.09;4976939;28;20212;-70
2022/04/27 03:14:36;;;;;;;19.63;17.63;;;;;;;8.22;100.00;98460.19;4978133;28;20214;-70
2022/04/27 03:17:02;;;;;;;21.13;18.70;;;;;;;8.20;100.00;98456.91;4978102;28;20242;-70
2022/04/27 03:19:29;;;;;;;23.00;20.10;;;;;;;8.23;100.00;98463.69;4978309;28;20212;-70
2022/04/27 03:21:55;;;;;;;22.20;19.90;;;;;;;8.33;100.00;98448.25;4977942;28;20207;-70
2022/04/27 03:24:21;;;;;;;21.30;19.00;;;;;;;8.47;100.00;98457.91;4977666;28;20215;-70
2022/04/27 03:26:48;;;;;;;22.07;19.77;;;;;;;8.50;100.00;98460.13;4976649;28;20210;-70
2022/04/27 03:29:16;;;;;;;22.00;18.90;;;;;;;8.30;100.00;98460.06;4977897;28;20212;-70
2022/04/27 03:31:43;;;;;;;21.33;19.13;;;;;;;8.34;100.00;98463.13;4977447;28;20666;-70
2022/04/27 03:34:09;;;;;;;21.07;18.87;;;;;;;8.42;100.00;98462.97;4977725;28;20208;-70
2022/04/27 03:36:36;;;;;;;21.03;18.67;;;;;;;8.33;100.00;98469.44;4977440;28;20227;-70
2022/04/27 03:39:02;;;;;;;22.47;18.80;;;;;;;8.31;100.00;98461.69;4976347;28;20215;-71
2022/04/27 03:41:28;;;;;;;22.93;20.23;;;;;;;8.35;100.00;98464.75;4977269;28;20212;-71
2022/04/27 03:43:56;;;;;;;22.43;20.03;;;;;;;8.24;100.00;98474.06;4977508;28;20212;-70
2022/04/27 03:46:22;;;;;;;20.67;18.53;;;;;;;8.28;100.00;98472.66;4977310;28;20203;-70
2022/04/27 03:48:48;;;;;;;21.07;18.87;;;;;;;8.24;100.00;98479.34;4976136;28;20251;-70
2022/04/27 03:51:15;;;;;;;24.37;20.57;;;;;;;8.29;100.00;98476.94;4977456;28;20290;-70
2022/04/27 03:53:41;;;;;;;21.80;19.47;;;;;;;8.21;100.00;98481.56;4975190;28;20208;-70
2022/04/27 03:56:08;;;;;;;23.80;20.83;;;;;;;8.14;100.00;98478.84;4976805;28;20594;-70
2022/04/27 03:58:34;;;;;;;23.63;20.07;;;;;;;8.39;100.00;98480.09;4976984;28;20719;-70
2022/04/27 04:01:00;;;;;;;21.23;19.03;;;;;;;8.19;100.00;98481.72;4975534;28;20207;-70
2022/04/27 04:03:27;;;;;;;21.50;19.00;;;;;;;8.22;100.00;98489.34;4977135;28;20218;-70
2022/04/27 04:05:54;;;;;;;23.57;21.07;;;;;;;8.22;100.00;98486.69;4977064;28;20200;-71
2022/04/27 04:08:20;;;;;;;22.00;19.67;;;;;;;8.16;100.00;98481.31;4975730;28;20280;-71
2022/04/27 04:10:47;;;;;;;22.00;18.80;;;;;;;8.11;100.00;98483.72;4977128;28;20219;-70
2022/04/27 04:13:13;;;;;;;22.67;19.73;;;;;;;8.14;100.00;98483.34;4977104;28;20635;-70
2022/04/27 04:15:40;;;;;;;22.57;19.23;;;;;;;8.14;100.00;98481.50;4976953;28;20231;-70
2022/04/27 04:18:07;;;;;;;22.17;19.77;;;;;;;8.12;100.00;98482.72;4976816;28;20228;-70
2022/04/27 04:20:33;;;;;;;22.07;19.73;;;;;;;8.11;100.00;98489.03;4977070;28;20216;-70
2022/04/27 04:23:00;;;;;;;22.67;20.13;;;;;;;8.08;100.00;98492.03;4975538;28;20211;-70
2022/04/27 04:30:54;;;;;;;23.77;20.30;;;;;;;8.14;100.00;98515.13;4976534;28;20176;-70
2022/04/27 04:33:20;;;;;;;22.37;19.13;;;;;;;8.25;100.00;98515.44;4976585;28;20223;-70
2022/04/27 04:35:47;;;;;;;23.47;20.40;;;;;;;8.34;100.00;98510.81;4975407;28;20226;-70
2022/04/27 04:38:14;;;;;;;24.53;21.10;;;;;;;8.29;100.00;98521.97;4975205;28;20270;-70
2022/04/27 04:40:40;;;;;;;23.57;20.87;;;;;;;8.22;100.00;98529.06;4975751;28;20211;-70
2022/04/27 04:43:07;;;;;;;24.87;22.10;;;;;;;8.28;100.00;98522.19;4976178;28;20235;-70
2022/04/27 04:45:33;;;;;;;25.37;21.37;;;;;;;8.30;100.00;98528.09;4975729;28;20694;-70
2022/04/27 04:48:00;;;;;;;22.73;20.10;;;;;;;8.23;100.00;98538.63;4975828;28;20240;-71
2022/04/27 04:50:26;;;;;;;25.00;21.20;;;;;;;8.22;100.00;98546.78;4974991;28;20581;-70
2022/04/27 04:52:53;;;;;;;24.40;21.10;;;;;;;8.23;100.00;98543.13;4975897;28;20253;-71
2022/04/27 04:55:19;;;;;;;25.37;21.57;;;;;;;8.28;100.00;98548.69;4976260;28;20215;-70
2022/04/27 04:57:45;;;;;;;25.50;21.40;;;;;;;8.34;100.00;98545.25;4975342;28;20232;-70
2022/04/27 05:00:12;;;;;;;23.80;20.80;;;;;;;8.33;100.00;98543.63;4975902;28;20207;-70
2022/04/27 05:02:38;;;;;;;25.60;21.87;;;;;;;8.38;100.00;98535.91;4975728;28;20208;-70
2022/04/27 05:05:06;;;;;;;22.30;19.43;;;;;;;8.42;100.00;98550.41;4974014;28;20208;-70
2022/04/27 05:07:33;;;;;;;25.43;21.10;;;;;;;8.38;100.00;98555.25;4975741;28;20220;-70
2022/04/27 05:10:00;;;;;;;22.40;20.00;;;;;;;8.36;100.00;98554.63;4975296;28;20219;-71
2022/04/27 05:12:27;;;;;;;22.60;19.60;;;;;;;8.53;100.00;98555.16;4974871;28;20230;-70
2022/04/27 05:14:54;;;;;;;21.00;18.80;;;;;;;8.46;100.00;98571.00;4975213;28;20215;-70
2022/04/27 05:17:21;;;;;;;23.13;19.40;;;;;;;8.56;100.00;98557.44;4974909;28;20227;-71
2022/04/27 05:19:48;;;;;;;22.40;20.10;;;;;;;8.63;100.00;98563.56;4973543;28;20208;-70
2022/04/27 05:22:15;;;;;;;21.33;18.73;;;;;;;8.70;100.00;98569.75;4975199;28;20204;-70
2022/04/27 05:24:41;;;;;;;23.27;20.77;;;;;;;8.53;100.00;98563.09;4974885;28;20662;-71
2022/04/27 05:27:08;;;;;;;21.47;19.23;;;;;;;8.58;100.00;98568.63;4974684;28;20719;-70
2022/04/27 05:32:18;;;;;;;20.80;18.60;;;;;;;8.50;100.00;98572.25;4975409;28;20179;-71
2022/04/27 05:34:45;;;;;;;22.40;18.77;;;;;;;8.55;100.00;98584.94;4974266;28;20210;-71
2022/04/27 05:37:12;;;;;;;21.00;18.70;;;;;;;8.55;100.00;98580.44;4974796;28;20239;-71
2022/04/27 05:39:38;;;;;;;24.43;19.47;;;;;;;8.53;100.00;98581.66;4974757;28;20215;-71
2022/04/27 05:42:06;;;;;;;22.37;20.07;;;;;;;8.59;100.00;98586.19;4975522;28;20215;-71
2022/04/27 05:44:32;;;;;;;21.40;19.20;;;;;;;8.98;100.00;98586.44;4974548;28;20687;-71
2022/04/27 05:46:59;;;;;;;21.87;19.57;;;;;;;8.88;100.00;98588.63;4974005;28;20219;-71
2022/04/27 05:49:25;;;;;;;23.37;19.17;;;;;;;8.83;100.00;98593.69;4974628;28;20208;-71
2022/04/27 05:51:52;;;;;;;23.77;19.33;;;;;;;9.01;100.00;98600.09;4972387;28;20214;-71
2022/04/27 05:54:19;;;;;;;22.47;19.40;;;;;;;8.93;100.00;98602.94;4974659;28;20214;-71
2022/04/27 05:56:45;;;;;;;22.20;19.83;;;;;;;8.91;100.00;98598.84;4974877;28;20314;-71
2022/04/27 05:59:12;;;;;;;21.13;19.03;;;;;;;8.84;100.00;98605.94;4975445;28;20215;-71
2022/04/27 06:01:39;;;;;;;21.70;19.40;;;;;;;8.92;100.00;98613.75;4973187;28;20209;-71
2022/04/27 06:04:05;;;;;;;22.40;19.77;;;;;;;8.76;100.00;98617.50;4974140;28;20299;-71
2022/04/27 06:06:31;;;;;;;21.87;19.33;;;;;;;8.83;100.00;98604.31;4974744;28;20227;-71
2022/04/27 06:08:58;;;;;;;23.67;21.00;;;;;;;8.78;100.00;98610.16;4974726;28;20238;-71
2022/04/27 06:11:24;;;;;;;22.90;20.27;;;;;;;8.85;100.00;98608.41;4975489;28;20204;-72
2022/04/27 06:13:51;;;;;;;24.57;21.13;;;;;;;9.00;100.00;98613.59;4974264;28;20208;-71
2022/04/27 06:16:17;;;;;;;23.47;20.60;;;;;;;8.95;100.00;98618.63;4973359;28;20227;-71
2022/04/27 06:18:45;;;;;;;23.57;21.07;;;;;;;8.98;100.00;98619.09;4974282;28;20736;-71
2022/04/27 06:21:12;;;;;;;26.17;21.23;;;;;;;9.07;100.00;98619.75;4973992;28;20666;-71
2022/04/27 06:23:41;;;;;;;24.47;21.27;;;;;;;9.22;100.00;98623.91;4974467;28;20536;-71
2022/04/27 06:26:07;;;;;;;23.97;20.33;;;;;;;9.18;100.00;98624.47;4973896;28;20214;-71
2022/04/27 06:28:34;;;;;;;19.23;17.30;;;;;;;9.25;100.00;98626.19;4974160;28;20238;-71
2022/04/27 06:31:01;;;;;;;19.43;17.40;;;;;;;9.12;100.00;98622.63;4973199;28;20215;-71
2022/04/27 06:33:28;;;;;;;19.13;17.07;;;;;;;9.14;100.00;98634.66;4974117;28;20227;-71
2022/04/27 06:35:55;;;;;;;20.80;17.03;;;;;;;9.04;100.00;98633.38;4974356;28;20315;-71
2022/04/27 06:38:21;;;;;;;20.60;18.07;;;;;;;8.97;100.00;98630.69;4973346;28;20242;-71
2022/04/27 06:40:47;;;;;;;20.03;16.33;;;;;;;9.22;100.00;98642.47;4974271;28;20211;-71
2022/04/27 06:43:14;;;;;;;24.50;17.23;;;;;;;9.32;100.00;98636.81;4974381;28;20698;-71
2022/04/27 06:45:40;;;;;;;22.47;17.63;;;;;;;9.29;100.00;98638.03;4973071;28;20211;-71
2022/04/27 06:48:07;;;;;;;15.83;14.17;;;;;;;9.49;100.00;98644.25;4973787;28;20235;-71
2022/04/27 06:50:33;;;;;;;18.17;13.93;;;;;;;9.39;100.00;98643.78;4973894;28;20208;-71
2022/04/27 06:52:59;;;;;;;17.23;15.40;;;;;;;9.43;100.00;98646.88;4974720;28;20218;-71
2022/04/27 06:55:27;;;;;;;27.17;15.87;;;;;;;9.15;100.00;98649.56;4974273;28;20219;-71
2022/04/27 06:57:54;;;;;;;25.30;14.90;;;;;;;9.13;100.00;98666.69;4973963;28;20235;-71
2022/04/27 07:00:21;;;;;;;15.53;14.03;;;;;;;9.22;100.00;98669.00;4972200;28;20718;-71
2022/04/27 07:02:48;;;;;;;16.27;14.17;;;;;;;9.43;100.00;98668.09;4973890;28;20578;-72
2022/04/27 07:05:17;;;;;;;15.53;13.40;;;;;;;9.60;100.00;98669.41;4973790;28;20212;-71
2022/04/27 07:07:48;;;;;;;13.67;12.27;;;;;;;9.71;100.00;98672.31;4974458;28;20224;-71
2022/04/27 07:10:17;;;;;;;13.73;12.33;;;;;;;9.61;100.00;98684.31;4974298;28;20192;-71
2022/04/27 07:12:43;;;;;;;14.10;12.60;;;;;;;9.62;100.00;98686.78;4972860;28;20578;-71
2022/04/27 07:15:10;;;;;;;13.23;12.03;;;;;;;9.04;100.00;98683.78;4974206;28;20212;-71
2022/04/27 07:17:36;;;;;;;14.07;12.43;;;;;;;9.43;100.00;98681.38;4973737;28;20232;-71
2022/04/27 07:20:03;;;;;;;13.50;10.93;;;;;;;9.71;100.00;98690.06;4974157;28;20214;-71
2022/04/27 07:22:29;;;;;;;13.03;11.73;;;;;;;9.79;100.00;98690.72;4973557;28;20208;-71
2022/04/27 07:24:56;;;;;;;12.60;11.50;;;;;;;9.55;100.00;98683.25;4974309;28;20207;-71
2022/04/27 07:27:23;;;;;;;11.97;10.83;;;;;;;9.87;100.00;98700.38;4968944;28;20216;-71
2022/04/27 07:29:49;;;;;;;11.17;10.07;;;;;;;10.19;96.52;98697.81;4972088;28;20208;-71
2022/04/27 07:32:15;;;;;;;12.63;10.60;;;;;;;10.18;97.50;98698.03;4973874;28;20215;-71
2022/04/27 07:34:42;;;;;;;11.83;10.53;;;;;;;10.01;99.90;98691.41;4973966;28;20207;-71
2022/04/27 07:37:10;;;;;;;11.13;10.03;;;;;;;10.02;97.80;98701.03;4976836;28;20236;-71
2022/04/27 07:39:36;;;;;;;10.40;9.50;;;;;;;10.41;98.07;98691.31;4977260;28;20730;-71
2022/04/27 07:42:04;;;;;;;10.20;9.20;;;;;;;10.83;95.75;98693.63;4975764;28;20681;-71
2022/04/27 07:44:30;;;;;;;10.17;9.10;;;;;;;10.56;91.19;98701.78;4976975;28;20207;-71
2022/04/27 07:46:57;;;;;;;9.80;8.90;;;;;;;10.47;90.45;98710.97;4976750;28;20728;-71
2022/04/27 07:49:23;;;;;;;9.67;8.77;;;;;;;10.41;91.16;98709.13;4977251;28;20192;-71
2022/04/27 07:51:50;;;;;;;9.43;8.63;;;;;;;10.66;89.19;98713.66;4977284;28;20208;-71
2022/04/27 07:54:17;;;;;;;10.30;9.23;;;;;;;10.65;94.88;98713.84;4976972;28;20211;-71
2022/04/27 07:56:43;;;;;;;9.80;8.83;;;;;;;10.65;92.05;98711.19;4975455;28;20250;-71
2022/04/27 07:59:10;;;;;;;8.77;7.97;;;;;;;10.57;92.92;98719.38;4977242;28;20687;-71
2022/04/27 08:01:36;;;;;;;9.77;8.80;;;;;;;10.75;93.11;98725.75;4977098;28;20216;-71
2022/04/27 08:04:02;;;;;;;9.93;8.30;;;;;;;10.98;89.74;98720.84;4977166;28;20267;-71
2022/04/27 08:06:29;;;;;;;9.37;8.57;;;;;;;10.76;88.14;98731.84;4977077;28;20219;-71
2022/04/27 08:08:55;;;;;;;9.20;8.30;;;;;;;10.83;91.59;98730.88;4976741;28;20232;-71
2022/04/27 08:11:22;;;;;;;8.50;7.70;;;;;;;11.07;90.06;98733.94;4976522;28;20208;-71
2022/04/27 08:13:49;;;;;;;8.43;7.63;;;;;;;10.87;88.41;98731.28;4975792;28;20690;-71
2022/04/27 08:16:15;;;;;;;8.73;7.83;;;;;;;10.93;89.96;98728.59;4976843;28;20204;-71
2022/04/27 08:18:41;;;;;;;8.83;7.80;;;;;;;11.10;90.04;98735.13;4974091;28;20232;-71
2022/04/27 08:21:18;;;;;;;9.23;8.23;;;;;;;10.98;89.82;98734.13;4957963;29;20263;-71
2022/04/27 08:23:46;;;;;;;9.03;8.03;;;;;;;10.89;88.24;98743.34;4957201;29;20283;-71
2022/04/27 08:26:14;;;;;;;8.20;7.40;;;;;;;10.98;87.78;98743.16;4957108;28;20208;-71
2022/04/27 08:28:42;;;;;;;8.00;7.30;;;;;;;11.12;85.45;98750.91;4957101;28;20221;-71
2022/04/27 08:31:10;;;;;;;9.83;8.70;;;;;;;11.27;87.45;98747.00;4958053;28;20213;-71
2022/04/27 08:33:37;;;;;;;7.90;7.20;;;;;;;11.41;81.99;98755.81;4976153;28;20579;-71
2022/04/27 08:36:04;;;;;;;8.30;7.57;;;;;;;11.35;83.95;98751.28;4976499;28;20204;-71
2022/04/27 08:38:33;;;;;;;8.70;7.90;;;;;;;11.22;83.59;98746.00;4976348;28;20242;-71
2022/04/27 08:41:00;;;;;;;8.27;7.57;;;;;;;11.47;82.13;98741.66;4976502;28;20234;-71
2022/04/27 08:43:27;;;;;;;8.57;7.63;;;;;;;11.48;82.55;98750.47;4976332;28;20230;-71
2022/04/27 08:45:55;;;;;;;8.77;7.93;;;;;;;11.86;80.62;98751.41;4974459;28;20204;-71
2022/04/27 08:48:22;;;;;;;8.43;7.63;;;;;;;11.82;80.70;98747.53;4975066;28;20733;-71
2022/04/27 08:50:50;;;;;;;9.30;8.40;;;;;;;11.75;81.05;98755.53;4976296;28;20207;-71
2022/04/27 08:53:16;;;;;;;8.97;8.17;;;;;;;11.88;81.44;98757.34;4976258;28;20243;-71
2022/04/27 08:55:44;;;;;;;8.90;8.07;;;;;;;12.04;80.54;98768.38;4975833;28;20209;-71
2022/04/27 08:58:13;;;;;;;8.50;7.70;;;;;;;11.93;80.60;98760.22;4975773;28;20242;-71
2022/04/27 09:00:40;;;;;;;9.10;8.20;;;;;;;12.08;77.35;98768.78;4973884;28;20578;-71
2022/04/27 09:03:29;;;;;;;8.93;8.07;;;;;;;11.84;78.84;98756.94;4974565;28;20215;-71
2022/04/27 09:06:04;;;;;;;8.97;7.53;;;;;;;11.54;82.66;98753.13;4975667;28;20284;-71
2022/04/27 09:08:50;;;;;;;7.83;7.07;;;;;;;12.05;80.01;98764.69;4975670;28;20239;-71
2022/04/27 09:11:19;;;;;;;8.10;7.30;;;;;;;12.23;76.84;98764.81;4975914;28;20281;-71
2022/04/27 09:13:50;;;;;;;8.97;7.70;;;;;;;12.16;78.71;98769.34;4975791;28;20208;-71
2022/04/27 09:16:18;;;;;;;7.70;7.00;;;;;;;12.25;79.41;98765.41;4974169;28;20206;-71
2022/04/27 09:21:58;;;;;;;8.30;7.37;;;;;;;12.04;77.99;98768.38;4975814;28;20640;-71
2022/04/27 09:24:25;;;;;;;8.43;7.63;;;;;;;11.99;74.97;98762.03;4975635;28;20219;-71
2022/04/27 09:27:10;;;;;;;8.03;7.27;;;;;;;12.11;77.45;98763.81;4975445;28;20214;-71
2022/04/27 09:29:36;;;;;;;8.40;7.70;;;;;;;11.93;74.30;98762.88;4975404;28;20211;-71
2022/04/27 09:32:04;;;;;;;7.47;6.77;;;;;;;12.10;76.39;98767.53;4975006;28;20658;-71
2022/04/27 09:34:43;;;;;;;7.37;6.77;;;;;;;12.21;74.47;98769.53;4973500;28;20206;-71
2022/04/27 09:37:16;;;;;;;5.63;5.03;;;;;;;12.57;71.62;98774.28;4975336;28;20235;-70
2022/04/27 09:39:43;;;;;;;5.93;5.43;;;;;;;12.36;73.91;98775.41;4974982;28;20715;-71
2022/04/27 09:42:10;;;;;;;7.07;6.47;;;;;;;12.42;75.44;98766.56;4975137;28;20256;-71
2022/04/27 09:44:40;;;;;;;6.50;5.90;;;;;;;12.28;73.22;98766.81;4974974;28;20209;-71
2022/04/27 09:47:08;;;;;;;7.47;6.67;;;;;;;12.21;76.88;98764.19;4974967;28;20266;-71
2022/04/27 09:49:36;;;;;;;7.03;6.40;;;;;;;12.25;77.11;98768.06;4974849;28;20655;-71
2022/04/27 09:52:05;;;;;;;7.47;6.60;;;;;;;12.12;74.70;98767.31;4973503;28;20270;-71
2022/04/27 09:54:36;;;;;;;6.97;6.37;;;;;;;12.20;76.52;98770.56;4975089;28;20215;-71
2022/04/27 09:57:08;;;;;;;6.93;6.27;;;;;;;12.50;74.64;98768.16;4974963;28;20238;-71
2022/04/27 09:59:36;;;;;;;7.13;6.43;;;;;;;12.34;73.63;98774.78;4974646;28;20223;-71
2022/04/27 10:02:08;;;;;;;6.53;5.93;;;;;;;13.05;71.80;98778.91;4975050;28;20211;-71
2022/04/27 10:04:36;;;;;;;6.43;5.83;;;;;;;13.02;69.90;98779.34;4974956;28;20211;-71
2022/04/27 10:07:05;;;;;;;6.00;5.37;;;;;;;12.90;70.35;98781.06;4973149;28;20227;-71
2022/04/27 10:09:33;;;;;;;6.70;6.10;;;;;;;13.18;69.27;98781.47;4975414;28;20221;-71
2022/04/27 10:12:06;;;;;;;6.43;5.67;;;;;;;13.21;68.61;98782.91;4974574;28;20216;-71
2022/04/27 10:14:33;;;;;;;6.40;5.80;;;;;;;12.97;71.15;98783.72;4974686;28;20202;-71
2022/04/27 10:16:59;;;;;;;6.90;5.77;;;;;;;13.25;70.25;98782.22;4974518;28;20235;-71
2022/04/27 10:19:26;;;;;;;6.60;6.00;;;;;;;12.82;69.07;98777.81;4974200;28;20693;-71
2022/04/27 10:21:59;;;;;;;4.37;3.97;;;;;;;13.38;66.97;98784.78;4974239;28;20701;-71
2022/04/27 10:24:34;;;;;;;4.53;4.13;;;;;;;13.01;67.04;98782.22;4972879;28;20206;-71
2022/04/27 10:27:20;;;;;;;4.40;4.00;;;;;;;13.38;66.01;98784.00;4974411;28;20234;-71
2022/04/27 10:29:58;;;;;;;4.20;3.83;;;;;;;13.76;67.75;98780.13;4974606;28;20200;-71
2022/04/27 10:32:45;;;;;;;4.77;4.23;;;;;;;13.64;64.84;98786.41;4974483;28;20648;-71
2022/04/27 10:35:17;;;;;;;4.63;4.10;;;;;;;13.41;67.18;98779.03;4974061;28;20588;-71
2022/04/27 10:37:49;;;;;;;4.37;3.97;;;;;;;13.05;68.91;98780.75;4974267;28;20232;-71
2022/04/27 10:40:40;;;;;;;4.57;4.20;;;;;;;13.07;68.60;98781.38;4972796;28;20216;-71
2022/04/27 10:43:06;;;;;;;4.83;3.70;;;;;;;13.11;67.50;98778.03;4971323;28;20650;-71
2022/04/27 10:45:42;;;;;;;4.43;4.03;;;;;;;13.05;68.53;98784.25;4974433;28;20207;-71
2022/04/27 10:48:15;;;;;;;5.40;3.90;;;;;;;12.59;68.81;98783.72;4974435;28;20325;-71
2022/04/27 10:50:54;;;;;;;3.80;3.50;;;;;;;12.44;69.12;98791.16;4974327;28;20196;-71
2022/04/27 10:53:22;;;;;;;4.20;3.90;;;;;;;12.65;69.94;98787.34;4974291;28;20198;-71
2022/04/27 10:55:54;;;;;;;4.00;3.70;;;;;;;13.05;67.76;98789.59;4971460;28;20208;-71
2022/04/27 10:58:23;;;;;;;4.00;3.70;;;;;;;13.08;65.48;98796.34;4973956;28;20568;-72
2022/04/27 11:00:58;;;;;;;4.00;3.70;;;;;;;13.03;67.18;98788.97;4973930;28;20663;-72
2022/04/27 11:03:32;;;;;;;4.57;4.27;;;;;;;13.36;65.71;98781.53;4974138;28;20207;-71
2022/04/27 11:06:05;;;;;;;4.43;4.13;;;;;;;13.29;67.15;98798.66;4974343;28;20200;-72
2022/04/27 11:08:48;;;;;;;3.70;3.40;;;;;;;14.01;65.45;98785.38;4974188;28;20224;-71
2022/04/27 11:11:17;;;;;;;4.53;4.13;;;;;;;13.95;63.84;98797.81;4974862;28;20219;-71
2022/04/27 11:13:44;;;;;;;3.90;3.60;;;;;;;13.56;66.32;98795.50;4977930;28;20270;-71
2022/04/27 11:16:14;;;;;;;3.90;3.60;;;;;;;13.35;67.46;98795.94;4977845;28;20212;-72
2022/04/27 11:18:55;;;;;;;4.40;4.10;;;;;;;13.31;66.84;98794.72;4978082;28;20374;-72
2022/04/27 11:21:23;;;;;;;4.40;4.10;;;;;;;13.57;67.59;98794.47;4977537;28;20295;-71
2022/04/27 11:23:49;;;;;;;4.40;4.10;;;;;;;13.51;66.55;98787.34;4976601;28;20656;-71
2022/04/27 11:26:16;;;;;;;4.13;3.83;;;;;;;13.65;66.50;98794.19;4977431;28;20203;-71
2022/04/27 11:28:43;;;;;;;4.23;3.83;;;;;;;13.51;64.71;98794.53;4977379;28;20234;-72
2022/04/27 11:31:14;;;;;;;4.00;3.70;;;;;;;13.83;64.40;98786.19;4977544;28;20211;-72
2022/04/27 11:33:41;;;;;;;4.63;4.33;;;;;;;14.16;64.51;98785.84;4977387;28;20196;-71
2022/04/27 11:36:20;;;;;;;4.23;3.83;;;;;;;14.32;65.84;98783.41;4977508;28;20203;-72
2022/04/27 11:38:46;;;;;;;3.80;3.50;;;;;;;14.44;62.31;98783.47;4976066;28;20228;-71
2022/04/27 11:41:18;;;;;;;3.90;3.60;;;;;;;14.34;62.69;98781.31;4977205;28;20219;-71
2022/04/27 11:43:45;;;;;;;3.80;3.50;;;;;;;14.42;61.00;98777.53;4977410;28;20214;-72